Time;durP1;ratioP1;P1;durP2;ratioP2;P2;SDS_P1;SDS_P2;PMS_P1;PMS_P2;Temp;Humidity;BMP_temperature;BMP_pressure;BME280_temperature;BME280_humidity;BME280_pressure;Samples;Min_cycle;Max_cycle;Signal;HPM_P1;HPM_P2
2023/09/09 00:00:00;;;;;;;14.18;11.85;;;20.00;1.00;;;;;;7364812;19;21290;-66
2023/09/09 00:02:32;;;;;;;13.05;11.55;;;19.90;1.00;;;;;;7363601;19;20019;-67
2023/09/09 00:05:02;;;;;;;14.35;11.68;;;19.90;1.00;;;;;;7365892;19;20018;-67
2023/09/09 00:07:32;;;;;;;12.70;11.02;;;19.80;1.00;;;;;;7366934;19;20021;-68
2023/09/09 00:10:03;;;;;;;15.63;11.73;;;19.80;1.00;;;;;;7366009;19;20031;-68
2023/09/09 00:12:33;;;;;;;12.95;11.50;;;19.70;1.00;;;;;;7362213;19;20363;-68
2023/09/09 00:15:05;;;;;;;16.38;12.52;;;19.70;1.00;;;;;;7364642;19;20011;-67
2023/09/09 00:17:37;;;;;;;11.90;10.65;;;19.60;1.30;;;;;;7365677;19;20003;-67
2023/09/09 00:20:09;;;;;;;13.55;10.63;;;19.50;3.80;;;;;;7372877;19;20015;-67
2023/09/09 00:22:39;;;;;;;16.70;11.35;;;19.40;7.20;;;;;;7368898;19;20011;-67
2023/09/09 00:25:10;;;;;;;12.20;10.52;;;19.30;11.00;;;;;;7370969;19;20032;-67
2023/09/09 00:27:40;;;;;;;15.25;11.18;;;19.30;12.50;;;;;;7371965;19;20014;-68
2023/09/09 00:30:11;;;;;;;13.30;11.38;;;19.20;16.60;;;;;;7369013;19;20044;-68
2023/09/09 00:32:44;;;;;;;16.17;11.20;;;19.20;16.70;;;;;;7368318;19;20044;-68
2023/09/09 00:35:14;;;;;;;12.40;11.05;;;19.30;14.20;;;;;;7371226;19;20011;-68
2023/09/09 00:37:44;;;;;;;15.68;11.38;;;19.30;15.00;;;;;;7372641;19;20018;-68
2023/09/09 00:40:14;;;;;;;13.27;10.88;;;19.30;12.00;;;;;;7370740;19;20038;-68
2023/09/09 00:42:44;;;;;;;13.18;10.68;;;19.30;11.30;;;;;;7367469;19;20010;-68
2023/09/09 00:45:14;;;;;;;12.48;11.18;;;19.20;11.50;;;;;;7369713;19;20015;-67
2023/09/09 00:47:47;;;;;;;11.27;9.85;;;19.10;13.30;;;;;;7371711;19;20022;-66
2023/09/09 00:50:17;;;;;;;16.30;11.33;;;19.10;15.40;;;;;;7371115;19;20034;-67
2023/09/09 00:52:48;;;;;;;13.40;10.85;;;19.00;17.00;;;;;;7367445;19;20014;-67
2023/09/09 00:55:18;;;;;;;12.05;10.77;;;19.00;20.10;;;;;;7369667;19;20010;-67
2023/09/09 00:57:48;;;;;;;13.20;11.80;;;18.90;22.20;;;;;;7372275;19;20023;-68
2023/09/09 01:00:18;;;;;;;14.48;10.70;;;18.90;23.30;;;;;;7370155;19;20094;-67
2023/09/09 01:02:50;;;;;;;14.05;11.27;;;18.80;25.30;;;;;;7366686;19;20019;-67
2023/09/09 01:05:21;;;;;;;16.35;11.35;;;18.70;26.10;;;;;;7369250;19;20021;-67
2023/09/09 01:07:52;;;;;;;12.18;10.80;;;18.70;29.50;;;;;;7371282;19;20331;-67
2023/09/09 01:10:23;;;;;;;12.02;10.77;;;18.70;30.00;;;;;;7370416;19;20015;-67
2023/09/09 01:12:53;;;;;;;17.35;12.13;;;18.60;33.70;;;;;;7364124;19;20026;-68
2023/09/09 01:15:23;;;;;;;14.63;12.05;;;18.60;34.50;;;;;;7369701;19;20471;-68
2023/09/09 01:17:56;;;;;;;14.73;11.35;;;18.50;36.60;;;;;;7371816;19;20015;-68
2023/09/09 01:20:28;;;;;;;15.57;11.82;;;18.50;42.60;;;;;;7370034;19;20016;-67
2023/09/09 01:23:00;;;;;;;16.20;13.32;;;18.50;43.60;;;;;;7364104;19;20010;-67
2023/09/09 01:25:31;;;;;;;14.85;12.23;;;18.50;44.20;;;;;;7369127;19;20094;-67
2023/09/09 01:28:00;;;;;;;12.90;10.60;;;18.50;41.50;;;;;;7370109;19;20018;-67
2023/09/09 01:30:31;;;;;;;14.60;11.70;;;18.50;43.10;;;;;;7368851;19;20013;-67
2023/09/09 01:33:01;;;;;;;13.80;11.77;;;18.50;44.90;;;;;;7362969;19;20082;-67
2023/09/09 01:35:31;;;;;;;13.02;11.38;;;18.50;42.00;;;;;;7368664;19;20034;-67
2023/09/09 01:38:04;;;;;;;15.63;11.55;;;18.40;43.50;;;;;;7368020;19;20082;-66
2023/09/09 01:40:33;;;;;;;17.27;12.55;;;18.40;45.80;;;;;;7370453;19;20046;-67
2023/09/09 01:43:03;;;;;;;16.27;12.43;;;18.50;45.60;;;;;;7362382;19;20024;-68
2023/09/09 01:45:33;;;;;;;14.75;11.75;;;18.50;38.60;;;;;;7370158;19;20010;-68
2023/09/09 01:48:04;;;;;;;13.48;12.13;;;18.50;37.60;;;;;;7368930;19;20018;-68
2023/09/09 01:50:35;;;;;;;14.20;11.65;;;18.60;35.80;;;;;;7370383;19;20014;-68
2023/09/09 01:53:07;;;;;;;14.35;11.98;;;18.60;34.90;;;;;;7362773;19;20501;-67
2023/09/09 01:55:37;;;;;;;13.68;11.73;;;18.60;32.50;;;;;;7369305;19;20007;-67
2023/09/09 01:58:07;;;;;;;12.95;11.52;;;18.50;34.30;;;;;;7368739;19;20478;-67
2023/09/09 02:00:37;;;;;;;13.25;11.43;;;18.50;35.50;;;;;;7370189;19;20034;-67
2023/09/09 02:03:07;;;;;;;15.88;11.82;;;18.60;31.60;;;;;;7363472;19;20015;-67
2023/09/09 02:05:37;;;;;;;13.45;12.05;;;18.60;31.20;;;;;;7369291;19;20014;-67
2023/09/09 02:08:10;;;;;;;15.43;11.57;;;18.60;31.60;;;;;;7362442;19;20022;-67
2023/09/09 02:10:40;;;;;;;15.27;11.82;;;18.60;27.70;;;;;;7371289;19;20018;-66
2023/09/09 02:13:10;;;;;;;13.73;11.63;;;18.50;29.10;;;;;;7363204;19;20025;-67
2023/09/09 02:15:40;;;;;;;15.77;11.57;;;18.40;31.30;;;;;;7368004;19;20026;-67
2023/09/09 02:18:10;;;;;;;13.93;11.43;;;18.40;36.80;;;;;;7368880;19;20070;-67
2023/09/09 02:20:40;;;;;;;16.70;12.00;;;18.40;35.70;;;;;;7369600;19;20017;-67
2023/09/09 02:23:12;;;;;;;13.82;11.52;;;18.40;37.90;;;;;;7361521;19;20016;-67
2023/09/09 02:25:42;;;;;;;12.88;11.40;;;18.40;39.20;;;;;;7369392;19;20010;-67
2023/09/09 02:28:13;;;;;;;15.93;12.57;;;18.40;38.60;;;;;;7366572;19;20015;-67
2023/09/09 02:30:45;;;;;;;16.20;13.07;;;18.40;37.30;;;;;;7367970;19;20014;-67
2023/09/09 02:33:16;;;;;;;13.77;12.30;;;18.30;40.30;;;;;;7359646;19;20478;-67
2023/09/09 02:35:46;;;;;;;15.43;13.57;;;18.30;43.00;;;;;;7369251;19;20494;-67
2023/09/09 02:38:19;;;;;;;13.73;12.23;;;18.40;39.20;;;;;;7369123;19;20006;-68
2023/09/09 02:40:49;;;;;;;14.70;12.90;;;18.40;38.90;;;;;;7368064;19;20017;-67
2023/09/09 02:43:19;;;;;;;18.23;14.30;;;18.30;42.10;;;;;;7360303;19;20089;-67
2023/09/09 02:45:48;;;;;;;18.08;13.35;;;18.20;48.30;;;;;;7369312;19;20014;-67
2023/09/09 02:48:18;;;;;;;18.25;13.80;;;18.30;49.20;;;;;;7368844;19;20102;-67
2023/09/09 02:50:48;;;;;;;16.15;12.73;;;18.20;47.20;;;;;;7369805;19;20006;-67
2023/09/09 02:53:21;;;;;;;16.90;12.90;;;18.20;51.20;;;;;;7362483;19;20090;-67
2023/09/09 02:55:51;;;;;;;15.05;13.05;;;18.10;51.60;;;;;;7368475;19;20029;-67
2023/09/09 02:58:21;;;;;;;20.45;12.48;;;18.10;57.00;;;;;;7368867;19;20049;-67
2023/09/09 03:00:51;;;;;;;18.73;13.27;;;18.00;56.90;;;;;;7367846;19;20011;-67
2023/09/09 03:03:22;;;;;;;16.60;12.43;;;18.00;59.70;;;;;;7361254;19;20022;-67
2023/09/09 03:05:52;;;;;;;15.95;12.35;;;18.00;58.30;;;;;;7367243;19;20018;-67
2023/09/09 03:08:25;;;;;;;15.10;13.25;;;18.00;58.60;;;;;;7368424;19;20013;-67
2023/09/09 03:10:55;;;;;;;14.95;13.30;;;18.00;61.80;;;;;;7370223;19;20014;-67
2023/09/09 03:13:25;;;;;;;20.10;14.85;;;18.00;60.30;;;;;;7361212;19;20079;-67
2023/09/09 03:15:55;;;;;;;19.13;14.38;;;18.00;61.00;;;;;;7368855;19;20014;-66
2023/09/09 03:18:25;;;;;;;16.45;13.85;;;18.10;60.50;;;;;;7367707;19;20031;-67
2023/09/09 03:20:55;;;;;;;17.23;13.73;;;18.00;57.60;;;;;;7368740;19;20038;-67
2023/09/09 03:23:28;;;;;;;17.15;14.65;;;18.00;58.00;;;;;;7361068;19;20024;-67
2023/09/09 03:25:58;;;;;;;16.45;13.98;;;18.00;58.80;;;;;;7368627;19;21682;-67
2023/09/09 03:28:28;;;;;;;18.73;14.93;;;18.00;58.50;;;;;;7367719;19;20022;-66
2023/09/09 03:30:59;;;;;;;16.85;15.05;;;18.00;58.00;;;;;;7366083;19;20126;-66
2023/09/09 03:33:30;;;;;;;16.83;15.00;;;18.00;57.80;;;;;;7359373;19;20022;-67
2023/09/09 03:36:01;;;;;;;21.13;15.23;;;18.00;57.60;;;;;;7366623;19;20027;-67
2023/09/09 03:38:33;;;;;;;16.90;14.98;;;18.00;58.80;;;;;;7367814;19;20027;-66
2023/09/09 03:41:06;;;;;;;18.33;15.25;;;18.00;59.30;;;;;;7367944;19;20014;-66
2023/09/09 03:43:36;;;;;;;19.48;15.32;;;18.00;58.60;;;;;;7359950;19;20487;-66
2023/09/09 03:46:07;;;;;;;18.58;15.00;;;18.00;58.30;;;;;;7367679;19;20514;-67
2023/09/09 03:48:37;;;;;;;18.10;14.77;;;18.00;57.40;;;;;;7368292;19;20011;-66
2023/09/09 03:51:07;;;;;;;18.00;15.27;;;18.00;58.00;;;;;;7368189;19;21519;-66
2023/09/09 03:53:39;;;;;;;17.52;14.40;;;17.90;58.90;;;;;;7364494;19;20018;-66
2023/09/09 03:56:09;;;;;;;17.95;14.90;;;17.90;60.50;;;;;;7374787;19;20014;-67
2023/09/09 03:58:39;;;;;;;19.05;15.60;;;17.90;60.60;;;;;;7374692;19;20018;-66
2023/09/09 04:01:12;;;;;;;18.23;15.65;;;17.90;62.50;;;;;;7373950;19;20470;-68
2023/09/09 04:03:43;;;;;;;15.82;14.18;;;17.90;64.90;;;;;;7365607;19;20077;-68
2023/09/09 04:06:16;;;;;;;17.10;14.50;;;17.90;66.00;;;;;;7373977;19;20006;-68
2023/09/09 04:08:55;;;;;;;19.10;14.45;;;17.80;66.80;;;;;;7374067;19;20014;-67
2023/09/09 04:11:25;;;;;;;23.27;14.70;;;17.80;68.00;;;;;;7373868;19;20013;-67
2023/09/09 04:13:55;;;;;;;21.08;15.63;;;17.80;67.30;;;;;;7366098;19;20346;-67
2023/09/09 04:16:25;;;;;;;19.25;15.30;;;17.80;69.10;;;;;;7374313;19;20356;-67
2023/09/09 04:18:55;;;;;;;17.40;15.05;;;17.80;66.50;;;;;;7373332;19;20042;-68
2023/09/09 04:21:25;;;;;;;19.08;15.55;;;17.80;67.90;;;;;;7373576;19;20006;-66
2023/09/09 04:23:58;;;;;;;16.70;14.55;;;17.70;69.00;;;;;;7366068;19;20017;-67
2023/09/09 04:26:28;;;;;;;19.70;14.93;;;17.70;72.10;;;;;;7372544;19;20759;-67
2023/09/09 04:29:00;;;;;;;22.15;15.32;;;17.70;75.10;;;;;;7373227;19;20291;-67
2023/09/09 04:31:30;;;;;;;21.02;15.15;;;17.60;81.20;;;;;;7371837;19;20017;-67
2023/09/09 04:33:59;;;;;;;17.75;15.73;;;17.60;80.50;;;;;;7366259;19;20081;-68
2023/09/09 04:36:29;;;;;;;22.23;15.60;;;17.60;84.20;;;;;;7373240;19;20007;-68
2023/09/09 04:39:02;;;;;;;17.70;15.18;;;17.60;82.10;;;;;;7372834;19;20491;-67
2023/09/09 04:41:32;;;;;;;21.35;15.73;;;17.50;83.40;;;;;;7371750;19;20018;-67
2023/09/09 04:44:02;;;;;;;20.52;15.43;;;17.50;83.10;;;;;;7366598;19;20634;-66
2023/09/09 04:46:32;;;;;;;22.48;16.77;;;17.60;83.20;;;;;;7372369;19;20497;-67
2023/09/09 04:49:02;;;;;;;20.55;15.70;;;17.70;79.20;;;;;;7372728;19;20038;-67
2023/09/09 04:51:33;;;;;;;19.27;15.32;;;17.70;72.30;;;;;;7371165;19;20027;-68
2023/09/09 04:54:05;;;;;;;21.27;16.20;;;17.60;72.60;;;;;;7365941;19;20082;-67
2023/09/09 04:56:35;;;;;;;21.95;15.68;;;17.60;70.90;;;;;;7371771;19;20013;-67
2023/09/09 04:59:05;;;;;;;19.15;16.40;;;17.60;72.20;;;;;;7372111;19;20030;-67
2023/09/09 05:01:35;;;;;;;27.27;16.35;;;17.60;70.30;;;;;;7369699;19;20748;-68
2023/09/09 05:04:06;;;;;;;20.90;16.27;;;17.70;70.10;;;;;;7365248;19;20025;-68
2023/09/09 05:06:35;;;;;;;21.17;16.85;;;17.60;67.00;;;;;;7372318;19;20027;-68
2023/09/09 05:09:08;;;;;;;19.48;16.27;;;17.70;62.80;;;;;;7371019;19;20014;-67
2023/09/09 05:11:38;;;;;;;22.48;16.23;;;17.80;59.80;;;;;;7370360;19;20429;-68
2023/09/09 05:14:08;;;;;;;20.27;16.05;;;18.40;35.00;;;;;;7367206;19;20011;-67
2023/09/09 05:16:38;;;;;;;19.52;15.95;;;18.80;12.70;;;;;;7373689;19;20010;-67
2023/09/09 05:19:08;;;;;;;17.58;14.50;;;19.10;2.00;;;;;;7372358;19;20014;-68
2023/09/09 05:21:38;;;;;;;19.05;14.88;;;19.60;1.00;;;;;;7370047;19;20029;-68
2023/09/09 05:24:11;;;;;;;17.17;14.75;;;20.00;1.00;;;;;;7367125;19;20011;-68
2023/09/09 05:26:41;;;;;;;16.33;14.63;;;20.20;1.00;;;;;;7373265;19;20097;-67
2023/09/09 05:29:11;;;;;;;17.25;14.18;;;20.40;1.00;;;;;;7370606;19;20019;-67
2023/09/09 05:31:41;;;;;;;17.13;13.65;;;19.50;1.00;;;;;;7368075;19;20018;-66
2023/09/09 05:34:11;;;;;;;17.40;14.20;;;18.80;7.20;;;;;;7366789;19;20073;-67
2023/09/09 05:36:41;;;;;;;21.85;13.98;;;18.60;12.40;;;;;;7370498;19;20054;-66
2023/09/09 05:39:14;;;;;;;18.20;14.30;;;18.50;17.40;;;;;;7370872;19;20014;-67
2023/09/09 05:41:44;;;;;;;17.65;14.27;;;18.60;18.90;;;;;;7367060;19;20031;-67
2023/09/09 05:44:13;;;;;;;15.60;13.88;;;18.60;19.50;;;;;;7364911;19;20023;-67
2023/09/09 05:46:44;;;;;;;17.33;13.73;;;18.60;18.40;;;;;;7371477;19;20336;-67
2023/09/09 05:49:14;;;;;;;15.85;13.48;;;18.60;19.40;;;;;;7369660;19;20018;-67
2023/09/09 05:52:00;;;;;;;18.30;15.07;;;18.60;18.70;;;;;;7361763;19;20052;-67
2023/09/09 05:54:33;;;;;;;20.52;14.27;;;18.60;18.40;;;;;;7368868;19;20014;-67
2023/09/09 05:57:03;;;;;;;19.33;14.05;;;18.80;16.10;;;;;;7368509;19;20517;-67
2023/09/09 05:59:34;;;;;;;15.70;13.68;;;18.80;15.50;;;;;;7368524;19;20082;-66
2023/09/09 06:02:04;;;;;;;18.67;14.52;;;18.80;15.80;;;;;;7359469;19;20037;-67
2023/09/09 06:04:41;;;;;;;16.98;13.27;;;18.90;16.70;;;;;;7367592;19;20017;-68
2023/09/09 06:07:11;;;;;;;19.95;14.68;;;18.90;11.90;;;;;;7369771;19;20022;-67
2023/09/09 06:09:43;;;;;;;17.27;12.88;;;18.90;12.00;;;;;;7370265;19;20085;-66
2023/09/09 06:12:13;;;;;;;18.33;14.38;;;19.00;9.10;;;;;;7358713;19;21135;-68
2023/09/09 06:14:43;;;;;;;17.60;14.35;;;19.20;5.80;;;;;;7367743;19;20011;-67
2023/09/09 06:17:13;;;;;;;18.05;14.20;;;19.30;2.20;;;;;;7366296;19;20519;-67
2023/09/09 06:19:43;;;;;;;19.63;14.02;;;19.20;2.70;;;;;;7369198;19;20043;-67
2023/09/09 06:22:13;;;;;;;17.00;13.68;;;19.30;5.20;;;;;;7360871;19;20010;-66
2023/09/09 06:24:46;;;;;;;20.17;13.82;;;19.20;4.60;;;;;;7369018;19;20006;-68
2023/09/09 06:27:16;;;;;;;17.52;14.50;;;19.40;1.00;;;;;;7369342;19;20688;-68
2023/09/09 06:29:46;;;;;;;15.70;13.75;;;19.40;1.00;;;;;;7369243;19;20014;-67
2023/09/09 06:32:16;;;;;;;16.15;13.55;;;19.70;1.00;;;;;;7360853;19;20486;-66
2023/09/09 06:34:46;;;;;;;19.60;13.93;;;19.60;1.00;;;;;;7368392;19;20050;-67
2023/09/09 06:40:39;;;;;;;21.35;14.60;;;19.60;1.00;;;;;;7370771;19;20027;-67
2023/09/09 06:43:09;;;;;;;14.65;12.98;;;19.70;1.00;;;;;;7363560;19;20588;-67
2023/09/09 06:45:39;;;;;;;19.42;13.80;;;19.80;1.00;;;;;;7371842;19;20367;-67
2023/09/09 06:48:09;;;;;;;15.00;13.40;;;19.80;1.00;;;;;;7370924;19;20733;-67
2023/09/09 06:50:39;;;;;;;18.08;13.73;;;20.00;1.00;;;;;;7372242;19;20099;-68
2023/09/09 06:53:09;;;;;;;17.20;13.27;;;20.10;1.00;;;;;;7363692;19;20010;-67
2023/09/09 06:55:41;;;;;;;17.52;13.60;;;20.20;1.00;;;;;;7370514;19;20014;-67
2023/09/09 06:58:12;;;;;;;18.33;13.25;;;20.20;1.00;;;;;;7371685;19;20043;-67
2023/09/09 07:00:43;;;;;;;20.23;13.43;;;20.20;1.00;;;;;;7370277;19;20062;-67
2023/09/09 07:03:13;;;;;;;16.10;13.93;;;20.40;1.00;;;;;;7363361;19;20014;-68
2023/09/09 07:05:43;;;;;;;15.80;14.10;;;20.60;1.00;;;;;;7370478;19;20030;-67
2023/09/09 07:08:13;;;;;;;17.33;13.63;;;20.60;1.00;;;;;;7368500;19;20028;-67
2023/09/09 07:10:53;;;;;;;16.88;13.70;;;20.80;1.00;;;;;;7369919;19;20025;-68
2023/09/09 07:13:25;;;;;;;16.33;13.48;;;20.90;1.00;;;;;;7362689;19;20546;-67
2023/09/09 07:15:55;;;;;;;16.65;13.05;;;21.00;1.00;;;;;;7369894;19;20030;-67
2023/09/09 07:18:25;;;;;;;16.65;13.27;;;21.10;1.00;;;;;;7369930;19;20010;-67
2023/09/09 07:20:58;;;;;;;14.13;12.63;;;21.10;1.00;;;;;;7370207;19;20018;-67
2023/09/09 07:23:28;;;;;;;53.97;29.40;;;21.20;1.00;;;;;;7361886;19;20020;-66
2023/09/09 07:26:01;;;;;;;16.95;13.00;;;21.30;1.00;;;;;;7370023;19;20028;-67
2023/09/09 07:28:34;;;;;;;19.02;13.27;;;21.40;1.00;;;;;;7368319;19;20077;-67
2023/09/09 07:31:05;;;;;;;18.45;13.70;;;21.60;1.00;;;;;;7369753;19;20006;-67
2023/09/09 07:33:36;;;;;;;14.00;12.43;;;21.70;1.00;;;;;;7361581;19;20014;-66
2023/09/09 07:36:06;;;;;;;14.43;11.80;;;21.90;1.00;;;;;;7370842;19;20066;-67
2023/09/09 07:38:39;;;;;;;16.13;13.25;;;22.00;1.00;;;;;;7369209;19;20478;-67
2023/09/09 07:41:12;;;;;;;17.13;12.20;;;22.00;1.00;;;;;;7369510;19;20044;-69
2023/09/09 07:43:42;;;;;;;14.25;11.48;;;22.30;1.00;;;;;;7361528;19;20018;-67
2023/09/09 07:46:12;;;;;;;14.13;12.13;;;22.20;1.00;;;;;;7370042;19;20011;-67
2023/09/09 07:48:43;;;;;;;14.48;12.32;;;22.30;1.00;;;;;;7369965;19;20022;-67
2023/09/09 07:51:14;;;;;;;17.13;12.93;;;22.60;1.00;;;;;;7369625;19;20017;-67
2023/09/09 07:53:44;;;;;;;13.30;10.77;;;22.60;1.00;;;;;;7360785;19;20018;-67
2023/09/09 07:56:16;;;;;;;11.80;10.60;;;22.70;1.00;;;;;;7368930;19;20031;-68
2023/09/09 07:58:46;;;;;;;13.98;10.98;;;22.90;1.00;;;;;;7369426;19;20031;-68
2023/09/09 08:01:19;;;;;;;14.50;10.90;;;22.90;1.00;;;;;;7367872;19;20014;-68
2023/09/09 08:03:49;;;;;;;18.60;11.93;;;23.20;1.00;;;;;;7359974;19;20010;-67
2023/09/09 08:06:19;;;;;;;12.23;10.95;;;23.10;1.00;;;;;;7369166;19;20031;-67
2023/09/09 08:08:49;;;;;;;12.05;10.77;;;23.10;1.00;;;;;;7365501;19;20088;-67
2023/09/09 08:11:22;;;;;;;13.25;11.27;;;23.30;1.00;;;;;;7368602;19;20078;-67
2023/09/09 08:13:52;;;;;;;12.48;11.10;;;23.10;1.00;;;;;;7360578;19;20022;-67
2023/09/09 08:16:22;;;;;;;14.20;12.55;;;23.10;1.00;;;;;;7367714;19;20014;-67
2023/09/09 08:18:52;;;;;;;15.38;11.70;;;23.30;1.00;;;;;;7368358;19;20022;-67
2023/09/09 08:21:21;;;;;;;13.45;11.20;;;23.50;1.00;;;;;;7368017;19;20014;-68
2023/09/09 08:23:52;;;;;;;14.02;11.63;;;23.60;1.00;;;;;;7360817;19;20014;-67
2023/09/09 08:26:25;;;;;;;12.60;11.13;;;23.50;1.00;;;;;;7368263;19;20023;-67
2023/09/09 08:28:55;;;;;;;15.07;11.45;;;23.40;1.00;;;;;;7367135;19;20018;-68
2023/09/09 08:31:25;;;;;;;12.45;11.15;;;23.80;1.00;;;;;;7367356;19;20047;-68
2023/09/09 08:33:55;;;;;;;12.43;11.20;;;24.10;1.00;;;;;;7357677;19;20483;-68
2023/09/09 08:36:25;;;;;;;13.38;11.52;;;23.90;1.00;;;;;;7367214;19;20070;-67
2023/09/09 08:38:57;;;;;;;14.13;10.60;;;23.90;1.00;;;;;;7368185;19;20024;-67
2023/09/09 08:41:42;;;;;;;14.75;10.90;;;24.30;1.00;;;;;;7373281;19;20110;-68
2023/09/09 08:44:21;;;;;;;14.75;10.77;;;24.10;1.00;;;;;;7370482;19;20006;-67
2023/09/09 08:46:50;;;;;;;12.05;10.80;;;24.10;1.00;;;;;;7374191;19;20019;-66
2023/09/09 08:49:25;;;;;;;13.02;10.57;;;23.90;1.00;;;;;;7374370;19;20017;-68
2023/09/09 08:52:00;;;;;;;14.55;11.18;;;24.30;1.00;;;;;;7368019;19;20007;-68
2023/09/09 08:54:31;;;;;;;12.95;10.57;;;24.60;1.00;;;;;;7373688;19;20082;-67
2023/09/09 08:57:04;;;;;;;12.32;10.10;;;24.30;1.00;;;;;;7374388;19;20115;-69
2023/09/09 08:59:35;;;;;;;13.20;10.67;;;24.50;1.00;;;;;;7374267;19;20021;-67
2023/09/09 09:02:05;;;;;;;11.57;10.48;;;24.90;1.00;;;;;;7366638;19;20267;-67
2023/09/09 09:04:39;;;;;;;10.82;9.82;;;24.90;1.00;;;;;;7372758;19;20018;-68
2023/09/09 09:07:10;;;;;;;12.45;10.65;;;24.90;1.00;;;;;;7374661;19;20011;-68
2023/09/09 09:09:40;;;;;;;14.95;11.35;;;24.60;1.00;;;;;;7374048;19;20046;-67
2023/09/09 09:12:15;;;;;;;11.98;10.82;;;24.80;1.00;;;;;;7366192;19;20011;-67
2023/09/09 09:14:49;;;;;;;10.80;9.70;;;24.70;1.00;;;;;;7374942;19;20082;-67
2023/09/09 09:17:19;;;;;;;14.98;11.98;;;24.70;1.00;;;;;;7374514;19;20014;-67
2023/09/09 09:19:49;;;;;;;12.15;10.93;;;24.90;1.00;;;;;;7372928;19;20014;-68
2023/09/09 09:22:19;;;;;;;12.50;10.50;;;24.90;1.00;;;;;;7367005;19;20014;-67
2023/09/09 09:24:49;;;;;;;10.60;9.23;;;25.30;1.00;;;;;;7373842;19;20021;-67
2023/09/09 09:27:22;;;;;;;13.55;10.02;;;25.30;1.00;;;;;;7374169;19;20014;-68
2023/09/09 09:29:52;;;;;;;12.82;10.10;;;25.50;1.00;;;;;;7373420;19;20040;-67
2023/09/09 09:32:22;;;;;;;10.85;9.77;;;25.40;1.00;;;;;;7365481;19;20034;-67
2023/09/09 09:34:54;;;;;;;10.20;9.15;;;25.60;1.00;;;;;;7374158;19;20028;-67
2023/09/09 09:37:28;;;;;;;10.63;9.52;;;25.50;1.00;;;;;;7374335;19;20052;-68
2023/09/09 09:39:58;;;;;;;13.43;9.73;;;25.60;1.00;;;;;;7373624;19;20018;-67
2023/09/09 09:42:35;;;;;;;12.57;9.95;;;25.80;1.00;;;;;;7365902;19;20482;-67
2023/09/09 09:45:11;;;;;;;11.50;9.60;;;25.60;1.00;;;;;;7372640;19;20034;-67
2023/09/09 09:47:46;;;;;;;9.60;8.63;;;25.50;1.00;;;;;;7369395;19;20602;-67
2023/09/09 09:50:22;;;;;;;10.35;9.00;;;25.90;1.00;;;;;;7372454;19;20014;-67
2023/09/09 09:53:04;;;;;;;10.32;8.95;;;25.90;1.00;;;;;;7363597;19;20010;-67
2023/09/09 09:55:36;;;;;;;10.45;9.07;;;25.70;1.00;;;;;;7371613;19;20015;-68
2023/09/09 09:58:09;;;;;;;11.80;8.85;;;25.70;1.00;;;;;;7373119;19;20519;-67
2023/09/09 10:00:40;;;;;;;12.98;9.05;;;26.00;1.00;;;;;;7372857;19;20740;-67
2023/09/09 10:03:12;;;;;;;11.60;9.52;;;26.00;1.00;;;;;;7364415;19;20505;-66
2023/09/09 10:05:45;;;;;;;10.13;8.73;;;26.00;1.00;;;;;;7371338;19;20580;-67
2023/09/09 10:08:30;;;;;;;12.40;9.40;;;26.30;1.00;;;;;;7374553;19;20018;-67
2023/09/09 10:11:05;;;;;;;9.68;8.50;;;26.20;1.00;;;;;;7372480;19;20415;-67
2023/09/09 10:13:49;;;;;;;10.15;8.40;;;26.10;1.00;;;;;;7363467;19;20566;-66
2023/09/09 10:16:20;;;;;;;8.55;7.72;;;26.40;1.00;;;;;;7373508;19;20011;-68
2023/09/09 10:18:52;;;;;;;9.25;8.35;;;26.30;1.00;;;;;;7371721;19;20035;-68
2023/09/09 10:21:23;;;;;;;9.25;8.30;;;26.80;1.00;;;;;;7373172;19;20018;-67
2023/09/09 10:24:13;;;;;;;9.55;8.40;;;26.70;1.00;;;;;;7368033;19;20073;-68
2023/09/09 10:26:44;;;;;;;11.52;8.15;;;26.50;1.00;;;;;;7372078;19;20615;-66
2023/09/09 10:29:18;;;;;;;10.43;7.22;;;26.50;1.00;;;;;;7372116;19;20362;-66
2023/09/09 10:31:52;;;;;;;11.40;7.65;;;26.60;1.00;;;;;;7368778;19;20022;-67
2023/09/09 10:34:25;;;;;;;8.38;7.50;;;26.70;1.00;;;;;;7369444;19;20105;-68
2023/09/09 10:36:57;;;;;;;7.55;6.80;;;26.90;1.00;;;;;;7373460;19;20089;-67
2023/09/09 10:39:32;;;;;;;7.55;6.40;;;27.10;1.00;;;;;;7370879;19;20011;-67
2023/09/09 10:42:02;;;;;;;8.63;6.80;;;27.00;1.00;;;;;;7361681;19;20363;-67
2023/09/09 10:44:35;;;;;;;9.05;5.82;;;26.90;1.00;;;;;;7368759;19;20014;-67
2023/09/09 10:47:11;;;;;;;8.73;6.60;;;27.20;1.00;;;;;;7372583;19;20060;-66
2023/09/09 10:49:41;;;;;;;8.48;6.97;;;26.90;1.00;;;;;;7370987;19;20014;-67
2023/09/09 10:52:33;;;;;;;10.68;6.57;;;27.10;1.00;;;;;;7364203;19;20014;-65
2023/09/09 10:55:15;;;;;;;7.15;6.07;;;27.00;1.00;;;;;;7370829;19;20018;-67
2023/09/09 10:57:45;;;;;;;10.48;6.78;;;27.10;1.00;;;;;;7372448;19;20015;-67
2023/09/09 11:00:39;;;;;;;7.93;6.78;;;27.10;1.00;;;;;;7370363;19;20038;-66
2023/09/09 11:03:12;;;;;;;8.73;6.73;;;27.20;1.00;;;;;;7362835;19;20101;-67
2023/09/09 11:06:02;;;;;;;10.65;6.90;;;27.40;1.00;;;;;;7370331;19;20013;-67
2023/09/09 11:08:35;;;;;;;10.75;6.07;;;27.50;1.00;;;;;;7371583;19;20014;-67
2023/09/09 11:11:10;;;;;;;7.60;6.25;;;27.30;1.00;;;;;;7371842;19;20020;-67
2023/09/09 11:13:42;;;;;;;7.82;5.85;;;27.40;1.00;;;;;;7362298;19;20371;-67
2023/09/09 11:16:37;;;;;;;6.97;5.68;;;27.80;1.00;;;;;;7371476;19;20013;-68
2023/09/09 11:19:10;;;;;;;8.85;6.03;;;27.40;1.00;;;;;;7372191;19;20089;-68
2023/09/09 11:21:46;;;;;;;8.63;6.45;;;27.30;1.00;;;;;;7366730;19;20040;-68
2023/09/09 11:24:16;;;;;;;7.50;5.60;;;27.60;1.00;;;;;;7366345;19;20474;-66
2023/09/09 11:26:47;;;;;;;13.20;7.05;;;27.80;1.00;;;;;;7371947;19;20011;-68
2023/09/09 11:29:18;;;;;;;9.75;5.72;;;28.00;1.00;;;;;;7370577;19;20027;-68
2023/09/09 11:32:11;;;;;;;8.38;6.10;;;28.00;1.00;;;;;;7362014;19;20077;-66
2023/09/09 11:34:41;;;;;;;7.80;6.03;;;27.90;1.00;;;;;;7368663;19;20025;-66
2023/09/09 11:37:13;;;;;;;7.15;5.93;;;27.90;1.00;;;;;;7370819;19;20496;-68
2023/09/09 11:39:44;;;;;;;7.88;5.95;;;28.20;1.00;;;;;;7368974;19;20046;-66
2023/09/09 11:42:14;;;;;;;6.60;5.90;;;28.00;1.00;;;;;;7363451;19;20118;-68
2023/09/09 11:44:46;;;;;;;8.23;6.18;;;27.80;1.00;;;;;;7368856;19;20090;-67
2023/09/09 11:47:19;;;;;;;8.98;6.15;;;28.20;1.00;;;;;;7370794;19;20014;-67
2023/09/09 11:49:50;;;;;;;17.90;5.47;;;28.10;1.00;;;;;;7370235;19;20027;-67
2023/09/09 11:52:22;;;;;;;9.13;5.80;;;28.00;1.00;;;;;;7361975;19;20010;-67
2023/09/09 11:54:53;;;;;;;7.75;5.78;;;28.30;1.00;;;;;;7368720;19;20018;-67
2023/09/09 11:57:23;;;;;;;7.97;5.28;;;28.40;1.00;;;;;;7369367;19;20014;-68
2023/09/09 11:59:54;;;;;;;11.63;5.65;;;28.60;1.00;;;;;;7369530;19;20014;-67
2023/09/09 12:02:29;;;;;;;;;;;28.70;1.00;;;;;;7362444;19;20045;-67
2023/09/09 12:05:01;;;;;;;7.05;5.30;;;28.50;1.00;;;;;;7368369;19;19919;-67
2023/09/09 12:07:33;;;;;;;13.70;5.70;;;28.60;1.00;;;;;;7369731;19;20035;-67
2023/09/09 12:10:05;;;;;;;9.48;5.90;;;28.50;1.00;;;;;;7368974;19;20028;-67
2023/09/09 12:12:36;;;;;;;9.07;5.78;;;28.70;1.00;;;;;;7361520;19;20035;-67
2023/09/09 12:15:08;;;;;;;9.35;6.10;;;28.40;1.00;;;;;;7375755;19;20023;-67
2023/09/09 12:17:40;;;;;;;8.00;5.85;;;28.40;1.00;;;;;;7375846;19;20501;-67
2023/09/09 12:20:11;;;;;;;8.17;5.90;;;28.60;1.00;;;;;;7376966;19;20038;-67
2023/09/09 12:22:47;;;;;;;13.32;5.93;;;28.50;1.00;;;;;;7368325;19;20034;-68
2023/09/09 12:25:31;;;;;;;9.10;5.45;;;28.60;1.00;;;;;;7374920;19;20011;-67
2023/09/09 12:28:01;;;;;;;10.20;5.47;;;28.50;1.00;;;;;;7376082;19;20011;-67
2023/09/09 12:30:37;;;;;;;10.70;6.10;;;29.00;1.00;;;;;;7375211;19;20007;-67
2023/09/09 12:33:11;;;;;;;11.38;6.20;;;29.00;1.00;;;;;;7368179;19;20015;-67
2023/09/09 12:35:45;;;;;;;9.50;5.82;;;28.80;1.00;;;;;;7371440;19;20010;-67
2023/09/09 12:38:17;;;;;;;;;;;28.50;1.00;;;;;;7375905;19;20011;-68
2023/09/09 12:40:51;;;;;;;8.88;5.45;;;28.60;1.00;;;;;;7374169;19;20308;-67
2023/09/09 12:43:25;;;;;;;7.03;5.50;;;28.50;1.00;;;;;;7366502;19;20341;-66
2023/09/09 12:45:58;;;;;;;14.88;6.13;;;28.80;1.00;;;;;;7374177;19;20011;-66
2023/09/09 12:48:31;;;;;;;8.30;5.70;;;28.80;1.00;;;;;;7374871;19;20501;-66
2023/09/09 12:51:02;;;;;;;9.38;5.18;;;28.70;1.00;;;;;;7373737;19;20088;-66
2023/09/09 12:53:31;;;;;;;8.90;5.65;;;28.80;1.00;;;;;;7366656;19;20007;-66
2023/09/09 12:56:01;;;;;;;8.13;5.25;;;28.80;1.00;;;;;;7375099;19;20194;-66
2023/09/09 12:58:35;;;;;;;10.85;5.70;;;28.70;1.00;;;;;;7373730;19;20021;-67
2023/09/09 13:01:05;;;;;;;10.35;5.50;;;28.80;1.00;;;;;;7375388;19;20014;-67
2023/09/09 13:03:37;;;;;;;7.72;5.60;;;28.80;1.00;;;;;;7366593;19;20014;-66